createdAt,value
2022-10-13T00:00:31.967Z,46.60
2022-10-13T00:03:00.212Z,46.40
2022-10-13T00:05:29.012Z,46.80
2022-10-13T00:07:56.319Z,47.10
2022-10-13T00:10:23.680Z,47.20
2022-10-13T00:12:50.653Z,46.80
2022-10-13T00:15:18.442Z,46.60
2022-10-13T00:17:45.314Z,46.40
2022-10-13T00:20:12.698Z,46.20
2022-10-13T00:22:41.056Z,46.40
2022-10-13T00:25:08.667Z,46.80
2022-10-13T00:27:35.371Z,46.70
2022-10-13T00:30:02.128Z,46.70
2022-10-13T00:32:29.373Z,46.60
2022-10-13T00:34:56.097Z,46.90
2022-10-13T00:37:22.858Z,46.70
2022-10-13T00:39:50.935Z,47.00
2022-10-13T00:42:17.869Z,46.90
2022-10-13T00:45:03.746Z,47.20
2022-10-13T00:47:36.033Z,47.70
2022-10-13T00:50:04.339Z,47.40
2022-10-13T00:52:32.965Z,47.30
2022-10-13T00:55:03.851Z,47.20
2022-10-13T00:57:30.651Z,47.30
2022-10-13T00:59:58.763Z,47.20
2022-10-13T01:02:31.290Z,47.40
2022-10-13T01:04:59.830Z,47.50
2022-10-13T01:07:26.633Z,47.70
2022-10-13T01:09:53.447Z,47.50
2022-10-13T01:12:40.226Z,47.70
2022-10-13T01:15:12.116Z,47.80
2022-10-13T01:17:48.798Z,47.40
2022-10-13T01:20:58.413Z,47.40
2022-10-13T01:23:55.518Z,47.90
2022-10-13T01:26:52.853Z,47.80
2022-10-13T01:29:47.803Z,47.70
2022-10-13T01:32:19.821Z,47.60
2022-10-13T01:34:53.174Z,47.50
2022-10-13T01:37:25.886Z,47.30
2022-10-13T01:39:57.499Z,47.40
2022-10-13T01:42:31.955Z,47.50
2022-10-13T01:45:02.487Z,47.90
2022-10-13T01:47:31.332Z,47.60
2022-10-13T01:49:59.670Z,47.60
2022-10-13T01:52:32.464Z,47.60
2022-10-13T01:55:06.755Z,47.60
2022-10-13T01:57:35.895Z,47.50
2022-10-13T02:00:07.747Z,47.70
2022-10-13T02:02:41.799Z,47.90
2022-10-13T02:05:17.741Z,47.90
2022-10-13T02:07:48.357Z,48.00
2022-10-13T02:10:20.589Z,47.60
2022-10-13T02:12:51.874Z,48.20
2022-10-13T02:15:23.352Z,48.20
2022-10-13T02:17:51.126Z,47.80
2022-10-13T02:20:19.955Z,47.80
2022-10-13T02:22:51.065Z,47.90
2022-10-13T02:25:17.993Z,47.80
2022-10-13T02:27:44.763Z,47.80
2022-10-13T02:30:22.603Z,47.50
2022-10-13T02:32:49.480Z,48.10
2022-10-13T02:35:16.288Z,47.60
2022-10-13T02:37:43.146Z,47.80
2022-10-13T02:40:11.124Z,47.80
2022-10-13T02:42:37.905Z,47.70
2022-10-13T02:45:05.843Z,47.40
2022-10-13T02:47:33.958Z,47.20
2022-10-13T02:50:00.859Z,47.40
2022-10-13T02:52:27.605Z,47.70
2022-10-13T02:54:54.306Z,47.90
2022-10-13T02:57:21.076Z,47.70
2022-10-13T02:59:47.835Z,47.70
2022-10-13T03:02:14.760Z,47.40
2022-10-13T03:04:43.088Z,47.20
2022-10-13T03:07:10.128Z,46.90
2022-10-13T03:09:36.894Z,46.70
2022-10-13T03:12:03.788Z,46.70
2022-10-13T03:14:30.502Z,46.60
2022-10-13T03:16:57.225Z,46.40
2022-10-13T03:19:24.286Z,46.60
2022-10-13T03:21:52.380Z,46.50
2022-10-13T03:24:19.148Z,46.60
2022-10-13T03:26:45.900Z,46.60
2022-10-13T03:29:14.357Z,46.60
2022-10-13T03:31:41.164Z,46.40
2022-10-13T03:34:07.951Z,46.20
2022-10-13T03:36:34.764Z,46.40
2022-10-13T03:39:02.879Z,46.40
2022-10-13T03:41:29.565Z,46.50
2022-10-13T03:43:56.328Z,47.20
2022-10-13T03:46:26.309Z,47.20
2022-10-13T03:48:53.114Z,46.20
2022-10-13T03:51:21.182Z,46.20
2022-10-13T03:53:49.021Z,46.20
2022-10-13T03:56:19.767Z,46.40
2022-10-13T03:58:46.494Z,46.70
2022-10-13T04:01:13.849Z,46.40
2022-10-13T04:03:40.618Z,46.60
2022-10-13T04:06:07.505Z,46.50
2022-10-13T04:08:34.649Z,46.70
2022-10-13T04:11:02.482Z,46.60
2022-10-13T04:13:30.611Z,46.90
2022-10-13T04:16:02.018Z,46.90
2022-10-13T04:18:28.829Z,47.00
2022-10-13T04:20:55.604Z,46.70
2022-10-13T04:23:22.303Z,46.90
2022-10-13T04:25:49.159Z,47.00
2022-10-13T04:28:16.087Z,46.90
2022-10-13T04:30:49.114Z,46.70
2022-10-13T04:33:16.258Z,46.70
2022-10-13T04:35:43.005Z,46.70
2022-10-13T04:38:09.755Z,46.80
2022-10-13T04:40:36.494Z,46.50
2022-10-13T04:43:03.506Z,46.60
2022-10-13T04:45:30.506Z,46.70
2022-10-13T04:48:00.166Z,46.60
2022-10-13T04:50:26.984Z,46.50
2022-10-13T04:52:53.717Z,47.10
2022-10-13T04:55:20.464Z,46.40
2022-10-13T04:57:47.258Z,46.60
2022-10-13T05:00:14.555Z,46.60
2022-10-13T05:02:41.329Z,46.60
2022-10-13T05:05:10.212Z,46.60
2022-10-13T05:07:37.140Z,46.60
2022-10-13T05:10:04.298Z,47.30
2022-10-13T05:12:31.019Z,46.70
2022-10-13T05:14:57.781Z,46.80
2022-10-13T05:17:24.639Z,46.60
2022-10-13T05:19:51.367Z,46.60
2022-10-13T05:22:19.688Z,47.00
2022-10-13T05:24:46.807Z,47.40
2022-10-13T05:27:13.917Z,47.40
2022-10-13T05:29:41.265Z,47.20
2022-10-13T05:32:08.580Z,47.70
2022-10-13T05:34:35.423Z,47.40
2022-10-13T05:37:02.302Z,47.30
2022-10-13T05:39:30.544Z,47.30
2022-10-13T05:41:57.370Z,47.40
2022-10-13T05:44:24.158Z,47.50
2022-10-13T05:46:50.987Z,47.40
2022-10-13T05:49:17.965Z,47.20
2022-10-13T05:51:47.804Z,47.00
2022-10-13T05:54:17.731Z,47.30
2022-10-13T05:56:51.612Z,47.40
2022-10-13T05:59:24.568Z,47.40
2022-10-13T06:01:53.306Z,48.20
2022-10-13T06:04:24.801Z,47.40
2022-10-13T06:06:56.335Z,47.50
2022-10-13T06:09:23.254Z,47.60
2022-10-13T06:11:51.454Z,47.60
2022-10-13T06:14:18.357Z,47.70
2022-10-13T06:16:45.192Z,47.70
2022-10-13T06:19:12.075Z,47.40
2022-10-13T06:21:38.938Z,47.70
2022-10-13T06:24:06.181Z,47.90
2022-10-13T06:26:33.196Z,47.80
2022-10-13T06:29:01.543Z,47.80
2022-10-13T06:31:28.484Z,47.80
2022-10-13T06:33:55.460Z,48.30
2022-10-13T06:36:22.298Z,48.30
2022-10-13T06:38:49.073Z,48.00
2022-10-13T06:41:15.973Z,48.10
2022-10-13T06:43:42.999Z,48.20
2022-10-13T06:46:13.185Z,48.50
2022-10-13T06:48:40.085Z,48.40
2022-10-13T06:51:09.463Z,48.40
2022-10-13T06:53:36.876Z,48.80
2022-10-13T06:56:06.531Z,48.80
2022-10-13T06:58:34.529Z,48.40
2022-10-13T07:01:01.454Z,48.80
2022-10-13T07:03:29.974Z,49.00
2022-10-13T07:06:01.029Z,49.00
2022-10-13T07:08:27.930Z,48.80
2022-10-13T07:10:54.793Z,48.60
2022-10-13T07:15:53.274Z,48.80
2022-10-13T07:18:20.035Z,48.80
2022-10-13T07:20:48.115Z,48.50
2022-10-13T07:23:14.901Z,48.80
2022-10-13T07:25:41.680Z,48.50
2022-10-13T07:28:08.526Z,48.80
2022-10-13T07:30:35.326Z,48.80
2022-10-13T07:33:02.151Z,48.50
2022-10-13T07:35:30.925Z,48.60
2022-10-13T07:37:59.282Z,48.60
2022-10-13T07:40:25.991Z,48.80
2022-10-13T07:42:52.712Z,49.00
2022-10-13T07:45:19.460Z,49.10
2022-10-13T07:47:46.218Z,49.50
2022-10-13T07:50:13.138Z,49.60
2022-10-13T07:52:39.974Z,50.50
2022-10-13T07:55:09.228Z,51.00
2022-10-13T07:57:36.023Z,50.80
2022-10-13T08:00:03.896Z,50.40
2022-10-13T08:02:30.605Z,50.70
2022-10-13T08:04:58.458Z,50.80
2022-10-13T08:07:25.198Z,50.80
2022-10-13T08:09:52.247Z,51.40
2022-10-13T08:12:20.680Z,51.10
2022-10-13T08:14:50.503Z,51.00
2022-10-13T08:17:17.426Z,50.80
2022-10-13T08:19:44.486Z,51.20
2022-10-13T08:22:11.475Z,51.10
2022-10-13T08:24:38.238Z,51.30
2022-10-13T08:27:04.959Z,51.50
2022-10-13T08:29:33.168Z,51.80
2022-10-13T08:32:00.145Z,51.70
2022-10-13T08:34:27.003Z,51.80
2022-10-13T08:36:54.800Z,52.00
2022-10-13T08:39:22.995Z,51.80
2022-10-13T08:41:50.362Z,52.50
2022-10-13T08:47:18.480Z,51.90
2022-10-13T08:49:45.448Z,52.10
2022-10-13T08:52:18.745Z,51.80
2022-10-13T08:54:45.922Z,52.30
2022-10-13T08:57:12.720Z,51.90
2022-10-13T08:59:39.774Z,52.20
2022-10-13T09:02:14.180Z,52.10
2022-10-13T09:04:44.176Z,52.30
2022-10-13T09:07:14.798Z,52.40
2022-10-13T09:09:41.610Z,52.40
2022-10-13T09:12:12.108Z,52.00
2022-10-13T09:14:40.314Z,51.20
2022-10-13T09:17:17.097Z,51.40
2022-10-13T09:19:44.859Z,53.00
2022-10-13T09:22:21.682Z,52.40
2022-10-13T09:25:01.501Z,53.00
2022-10-13T09:27:28.383Z,52.40
2022-10-13T09:29:55.131Z,51.90
2022-10-13T09:32:35.387Z,51.90
2022-10-13T09:35:20.319Z,51.80
2022-10-13T09:38:01.268Z,52.60
2022-10-13T09:40:28.372Z,51.20
2022-10-13T09:42:55.273Z,51.50
2022-10-13T09:45:24.707Z,51.60
2022-10-13T09:47:55.688Z,51.40
2022-10-13T09:50:25.734Z,51.40
2022-10-13T09:52:53.282Z,52.00
2022-10-13T09:55:32.421Z,51.60
2022-10-13T09:58:05.517Z,51.70
2022-10-13T10:00:33.339Z,51.50
2022-10-13T10:03:06.133Z,51.10
2022-10-13T10:05:43.041Z,50.60
2022-10-13T10:08:16.008Z,51.40
2022-10-13T10:10:43.624Z,51.60
2022-10-13T10:13:12.240Z,51.30
2022-10-13T10:15:48.443Z,51.20
2022-10-13T10:18:21.619Z,50.80
2022-10-13T10:21:02.523Z,51.00
2022-10-13T10:23:38.752Z,50.90
2022-10-13T10:26:11.679Z,51.50
2022-10-13T10:28:53.559Z,51.70
2022-10-13T10:31:31.829Z,51.20
2022-10-13T10:34:16.838Z,51.00
2022-10-13T10:36:53.226Z,51.10
2022-10-13T10:39:30.327Z,51.20
2022-10-13T10:42:06.100Z,50.90
2022-10-13T10:44:36.643Z,50.40
2022-10-13T10:47:07.573Z,50.90
2022-10-13T10:49:37.060Z,50.10
2022-10-13T10:52:10.162Z,50.00
2022-10-13T10:54:48.410Z,49.70
2022-10-13T10:57:23.155Z,49.60
2022-10-13T10:59:59.657Z,49.30
2022-10-13T11:02:43.296Z,49.30
2022-10-13T11:05:12.302Z,49.60
2022-10-13T11:07:58.007Z,48.90
2022-10-13T11:10:25.247Z,48.40
2022-10-13T11:13:25.089Z,48.10
2022-10-13T11:15:52.327Z,47.40
2022-10-13T11:18:56.961Z,47.70
2022-10-13T11:21:25.372Z,47.40
2022-10-13T11:23:52.251Z,47.30
2022-10-13T11:26:28.791Z,46.60
2022-10-13T11:28:55.693Z,46.40
2022-10-13T11:31:47.647Z,46.70
2022-10-13T11:34:30.706Z,46.20
2022-10-13T11:37:01.273Z,46.10
2022-10-13T11:39:53.853Z,46.60
2022-10-13T11:43:08.245Z,46.00
2022-10-13T11:45:50.413Z,45.40
2022-10-13T11:48:38.292Z,44.70
2022-10-13T11:51:16.441Z,44.60
2022-10-13T11:53:53.470Z,44.20
2022-10-13T11:56:22.306Z,45.00
2022-10-13T11:58:49.472Z,43.70
2022-10-13T12:01:17.506Z,44.50
2022-10-13T12:03:46.052Z,45.00
2022-10-13T12:06:25.633Z,44.40
2022-10-13T12:08:53.906Z,44.90
2022-10-13T12:11:25.895Z,44.90
2022-10-13T12:13:53.566Z,44.00
2022-10-13T12:16:21.827Z,44.30
2022-10-13T12:18:49.187Z,43.80
2022-10-13T12:21:18.544Z,43.90
2022-10-13T12:23:46.151Z,43.90
2022-10-13T12:26:17.737Z,44.50
2022-10-13T12:28:51.869Z,44.10
2022-10-13T12:31:21.233Z,44.00
2022-10-13T12:33:53.404Z,43.20
2022-10-13T12:36:22.603Z,42.50
2022-10-13T12:38:52.591Z,42.70
2022-10-13T12:41:27.135Z,42.70
2022-10-13T12:43:55.215Z,44.10
2022-10-13T12:46:39.011Z,43.40
2022-10-13T12:49:06.420Z,43.60
2022-10-13T12:51:33.716Z,44.40
2022-10-13T12:54:00.801Z,44.60
2022-10-13T12:56:31.327Z,44.60
2022-10-13T12:58:58.948Z,44.30
2022-10-13T13:01:29.446Z,43.90
2022-10-13T13:03:58.941Z,43.00
2022-10-13T13:06:37.251Z,42.50
2022-10-13T13:09:21.697Z,42.10
2022-10-13T13:12:20.448Z,42.90
2022-10-13T13:14:48.774Z,42.50
2022-10-13T13:17:38.830Z,42.40
2022-10-13T13:20:20.367Z,42.10
2022-10-13T13:22:47.290Z,42.20
2022-10-13T13:25:15.344Z,42.20
2022-10-13T13:27:43.735Z,41.90
2022-10-13T13:30:12.939Z,41.90
2022-10-13T13:32:40.288Z,42.20
2022-10-13T13:35:08.007Z,42.20
2022-10-13T13:37:37.955Z,42.00
2022-10-13T13:40:06.041Z,41.70
2022-10-13T13:42:33.598Z,42.00
2022-10-13T13:45:01.771Z,41.20
2022-10-13T13:47:29.233Z,41.10
2022-10-13T13:49:56.969Z,41.10
2022-10-13T13:52:24.608Z,40.90
2022-10-13T13:54:51.939Z,40.80
2022-10-13T13:57:20.439Z,41.50
2022-10-13T13:59:47.592Z,42.50
2022-10-13T14:02:18.234Z,41.40
2022-10-13T14:04:45.717Z,41.30
2022-10-13T14:07:12.786Z,41.90
2022-10-13T14:09:39.792Z,41.90
2022-10-13T14:12:06.803Z,41.60
2022-10-13T14:14:34.097Z,41.40
2022-10-13T14:17:01.891Z,41.20
2022-10-13T14:19:30.467Z,40.90
2022-10-13T14:21:58.151Z,41.20
2022-10-13T14:24:25.426Z,40.90
2022-10-13T14:26:52.652Z,41.20
2022-10-13T14:29:19.768Z,41.30
2022-10-13T14:31:46.710Z,41.00
2022-10-13T14:34:13.782Z,41.00
2022-10-13T14:36:42.380Z,41.80
2022-10-13T14:39:09.389Z,41.40
2022-10-13T14:41:36.379Z,40.90
2022-10-13T14:44:03.402Z,41.20
2022-10-13T14:46:30.649Z,41.50
2022-10-13T14:48:57.810Z,41.40
2022-10-13T14:51:25.065Z,41.80
2022-10-13T14:53:53.287Z,41.60
2022-10-13T14:56:21.892Z,41.60
2022-10-13T14:58:50.028Z,41.40
2022-10-13T15:01:17.906Z,41.60
2022-10-13T15:03:45.550Z,41.90
2022-10-13T15:06:14.310Z,42.00
2022-10-13T15:08:41.685Z,42.10
2022-10-13T15:11:10.372Z,42.00
2022-10-13T15:13:38.013Z,41.90
2022-10-13T15:16:05.811Z,41.90
2022-10-13T15:18:33.966Z,41.90
2022-10-13T15:21:00.764Z,42.10
2022-10-13T15:23:27.999Z,42.80
2022-10-13T15:25:56.641Z,42.60
2022-10-13T15:28:26.106Z,42.30
2022-10-13T15:30:53.055Z,42.50
2022-10-13T15:33:20.012Z,42.50
2022-10-13T15:35:48.303Z,43.00
2022-10-13T15:38:15.060Z,42.90
2022-10-13T15:40:42.033Z,43.20
2022-10-13T15:43:09.035Z,43.00
2022-10-13T15:45:37.759Z,43.00
2022-10-13T15:48:08.640Z,42.70
2022-10-13T15:50:39.505Z,42.90
2022-10-13T15:53:06.803Z,42.80
2022-10-13T15:55:33.628Z,43.10
2022-10-13T15:58:00.790Z,43.30
2022-10-13T16:00:27.640Z,43.00
2022-10-13T16:02:55.964Z,43.30
2022-10-13T16:05:22.949Z,43.30
2022-10-13T16:07:49.744Z,43.50
2022-10-13T16:10:16.790Z,43.40
2022-10-13T16:12:48.561Z,43.60
2022-10-13T16:15:16.955Z,44.40
2022-10-13T16:17:43.819Z,43.80
2022-10-13T16:20:12.849Z,43.80
2022-10-13T16:22:39.605Z,43.80
2022-10-13T16:25:07.547Z,43.80
2022-10-13T16:27:34.907Z,44.00
2022-10-13T16:30:01.726Z,44.00
2022-10-13T16:32:28.503Z,44.00
2022-10-13T16:34:55.296Z,43.90
2022-10-13T16:37:23.900Z,44.10
2022-10-13T16:39:52.070Z,44.10
2022-10-13T16:42:19.189Z,44.50
2022-10-13T16:44:45.887Z,44.40
2022-10-13T16:47:17.350Z,44.30
2022-10-13T16:49:44.936Z,44.50
2022-10-13T16:52:11.770Z,44.60
2022-10-13T16:54:40.108Z,44.70
2022-10-13T16:57:06.990Z,44.60
2022-10-13T16:59:33.971Z,44.80
2022-10-13T17:02:01.228Z,44.90
2022-10-13T17:04:28.390Z,44.90
2022-10-13T17:06:55.355Z,45.00
2022-10-13T17:09:22.868Z,45.00
2022-10-13T17:11:51.104Z,44.90
2022-10-13T17:14:17.865Z,45.10
2022-10-13T17:16:44.652Z,45.00
2022-10-13T17:19:11.519Z,45.10
2022-10-13T17:21:38.319Z,45.10
2022-10-13T17:24:05.365Z,45.20
2022-10-13T17:26:32.197Z,45.10
2022-10-13T17:29:00.683Z,45.90
2022-10-13T17:31:27.611Z,45.30
2022-10-13T17:33:54.448Z,45.10
2022-10-13T17:36:23.455Z,45.20
2022-10-13T17:38:51.543Z,45.50
2022-10-13T17:41:19.205Z,45.20
2022-10-13T17:43:46.200Z,45.40
2022-10-13T17:46:36.925Z,45.50
2022-10-13T17:49:03.616Z,45.50
2022-10-13T17:51:30.486Z,45.60
2022-10-13T17:53:59.483Z,45.70
2022-10-13T17:56:26.546Z,45.50
2022-10-13T17:58:53.449Z,45.60
2022-10-13T18:01:23.669Z,45.60
2022-10-13T18:03:51.891Z,45.70
2022-10-13T18:06:18.954Z,45.70
2022-10-13T18:08:46.289Z,45.90
2022-10-13T18:11:15.752Z,45.90
2022-10-13T18:13:44.124Z,45.80
2022-10-13T18:16:12.702Z,45.80
2022-10-13T18:18:41.471Z,45.80
2022-10-13T18:21:08.392Z,45.90
2022-10-13T18:23:37.258Z,45.80
2022-10-13T18:26:05.757Z,45.90
2022-10-13T18:28:34.005Z,45.90
2022-10-13T18:31:05.894Z,46.00
2022-10-13T18:33:33.039Z,46.00
2022-10-13T18:36:02.012Z,46.10
2022-10-13T18:38:28.899Z,46.10
2022-10-13T18:40:59.537Z,46.30
2022-10-13T18:43:26.296Z,46.30
2022-10-13T18:45:53.089Z,46.40
2022-10-13T18:48:19.985Z,46.40
2022-10-13T18:50:46.726Z,46.50
2022-10-13T18:53:15.098Z,46.50
2022-10-13T18:55:41.901Z,46.50
2022-10-13T18:58:08.720Z,46.60
2022-10-13T19:00:35.622Z,46.80
2022-10-13T19:03:02.602Z,46.70
2022-10-13T19:05:29.635Z,46.70
2022-10-13T19:07:56.483Z,46.90
2022-10-13T19:10:24.636Z,47.00
2022-10-13T19:12:51.395Z,46.90
2022-10-13T19:15:18.224Z,47.00
2022-10-13T19:17:45.015Z,47.00
2022-10-13T19:20:12.053Z,47.10
2022-10-13T19:22:38.840Z,47.10
2022-10-13T19:25:06.852Z,47.30
2022-10-13T19:27:35.044Z,47.20
2022-10-13T19:30:01.881Z,47.20
2022-10-13T19:32:28.703Z,47.30
2022-10-13T19:34:55.492Z,47.30
2022-10-13T19:37:22.853Z,47.40
2022-10-13T19:39:49.974Z,47.50
2022-10-13T19:42:16.981Z,47.40
2022-10-13T19:44:45.233Z,47.60
2022-10-13T19:47:12.098Z,47.90
2022-10-13T19:49:38.913Z,47.60
2022-10-13T19:52:05.636Z,47.50
2022-10-13T19:54:34.044Z,47.50
2022-10-13T19:57:01.031Z,47.60
2022-10-13T19:59:27.860Z,47.70
2022-10-13T20:01:56.128Z,47.70
2022-10-13T20:04:22.920Z,47.80
2022-10-13T20:06:50.597Z,47.70
2022-10-13T20:09:18.337Z,47.60
2022-10-13T20:11:51.855Z,47.50
2022-10-13T20:14:18.907Z,47.50
2022-10-13T20:16:48.828Z,48.20
2022-10-13T20:19:17.903Z,47.80
2022-10-13T20:21:44.752Z,47.70
2022-10-13T20:24:11.661Z,47.50
2022-10-13T20:26:38.387Z,47.60
2022-10-13T20:29:05.379Z,47.60
2022-10-13T20:31:32.197Z,47.50
2022-10-13T20:33:59.215Z,47.50
2022-10-13T20:36:28.207Z,47.40
2022-10-13T20:38:55.224Z,47.50
2022-10-13T20:41:24.284Z,47.60
2022-10-13T20:43:51.965Z,48.20
2022-10-13T20:46:19.660Z,47.50
2022-10-13T20:51:35.533Z,47.50
2022-10-13T20:54:02.545Z,47.60
2022-10-13T20:56:29.380Z,47.70
2022-10-13T20:58:56.258Z,47.60
2022-10-13T21:01:23.137Z,47.70
2022-10-13T21:03:51.841Z,47.70
2022-10-13T21:06:18.693Z,47.60
2022-10-13T21:08:47.034Z,47.50
2022-10-13T21:11:16.172Z,47.70
2022-10-13T21:13:44.133Z,47.60
2022-10-13T21:16:12.463Z,47.60
2022-10-13T21:18:39.644Z,47.60
2022-10-13T21:21:08.649Z,47.50
2022-10-13T21:23:36.827Z,47.50
2022-10-13T21:26:07.283Z,47.50
2022-10-13T21:28:36.192Z,47.80
2022-10-13T21:31:04.894Z,47.70
2022-10-13T21:33:34.418Z,47.60
2022-10-13T21:36:05.690Z,47.60
2022-10-13T21:38:32.453Z,47.60
2022-10-13T21:40:59.241Z,47.60
2022-10-13T21:43:27.500Z,47.60
2022-10-13T21:45:54.306Z,47.60
2022-10-13T21:48:21.075Z,47.60
2022-10-13T21:50:47.999Z,48.50
2022-10-13T21:53:14.777Z,47.60
2022-10-13T21:55:42.206Z,47.60
2022-10-13T21:58:08.990Z,47.70
2022-10-13T22:00:37.273Z,47.70
2022-10-13T22:03:04.207Z,47.80
2022-10-13T22:05:30.985Z,47.70
2022-10-13T22:07:57.835Z,47.70
2022-10-13T22:10:24.674Z,47.70
2022-10-13T22:12:51.478Z,47.80
2022-10-13T22:15:18.235Z,47.70
2022-10-13T22:17:46.389Z,47.70
2022-10-13T22:20:13.238Z,47.80
2022-10-13T22:22:40.107Z,47.90
2022-10-13T22:25:08.205Z,47.90
2022-10-13T22:27:34.963Z,47.90
2022-10-13T22:30:01.837Z,48.00
2022-10-13T22:32:28.883Z,48.00
2022-10-13T22:34:57.114Z,47.90
2022-10-13T22:37:24.034Z,48.10
2022-10-13T22:39:51.071Z,48.00
2022-10-13T22:42:17.983Z,48.10
2022-10-13T22:44:44.848Z,48.10
2022-10-13T22:47:11.631Z,48.50
2022-10-13T22:49:38.423Z,48.50
2022-10-13T22:52:06.694Z,48.50
2022-10-13T22:54:33.499Z,48.40
2022-10-13T22:57:00.259Z,49.20
2022-10-13T22:59:27.105Z,48.50
2022-10-13T23:01:53.963Z,48.80
2022-10-13T23:04:20.698Z,49.10
2022-10-13T23:06:47.549Z,48.80
2022-10-13T23:09:15.780Z,49.10
2022-10-13T23:11:42.640Z,48.90
2022-10-13T23:14:09.703Z,48.70
2022-10-13T23:16:36.467Z,48.60
2022-10-13T23:19:03.451Z,48.70
2022-10-13T23:21:30.896Z,48.80
2022-10-13T23:23:59.126Z,48.60
2022-10-13T23:26:28.725Z,48.80
2022-10-13T23:28:55.882Z,48.80
2022-10-13T23:31:22.950Z,48.70
2022-10-13T23:33:50.010Z,48.70
2022-10-13T23:36:18.773Z,48.70
2022-10-13T23:38:45.856Z,48.70
2022-10-13T23:41:14.393Z,48.70
2022-10-13T23:43:43.077Z,49.00
2022-10-13T23:46:10.273Z,49.00
2022-10-13T23:48:37.581Z,49.00
2022-10-13T23:51:08.961Z,49.00
2022-10-13T23:53:36.678Z,49.00
2022-10-13T23:56:04.167Z,49.20
2022-10-13T23:58:30.984Z,49.10
